Time;durP1;ratioP1;P1;durP2;ratioP2;P2;SDS_P1;SDS_P2;PMS_P1;PMS_P2;Temp;Humidity;BMP_temperature;BMP_pressure;BME280_temperature;BME280_humidity;BME280_pressure;Samples;Min_cycle;Max_cycle;Signal;HPM_P1;HPM_P2
2022/03/15 00:01:56;;;;;;;;;;;;;;;5.99;100.00;102840.94;4982923;28;19972;-71
2022/03/15 00:04:21;;;;;;;;;;;;;;;5.92;100.00;102836.50;4985479;28;20017;-71
2022/03/15 00:06:46;;;;;;;;;;;;;;;5.93;100.00;102840.00;4992949;28;19921;-71
2022/03/15 00:09:11;;;;;;;;;;;;;;;5.84;100.00;102838.19;4980241;28;19942;-71
2022/03/15 00:11:40;;;;;;;;;;;;;;;5.84;100.00;102837.28;4993674;28;19925;-72
2022/03/15 00:14:05;;;;;;;;;;;;;;;5.75;100.00;102835.41;4979999;28;20398;-71
2022/03/15 00:16:31;;;;;;;;;;;;;;;5.70;100.00;102841.53;4988183;28;19918;-71
2022/03/15 00:18:57;;;;;;;;;;;;;;;5.71;100.00;102832.75;4982516;28;19925;-72
2022/03/15 00:21:23;;;;;;;;;;;;;;;5.70;100.00;102825.72;4990287;28;20406;-71
2022/03/15 00:23:48;;;;;;;;;;;;;;;5.68;100.00;102830.97;4982902;28;19926;-71
2022/03/15 00:26:13;;;;;;;;;;;;;;;5.71;100.00;102832.75;4982626;28;20013;-71
2022/03/15 00:28:39;;;;;;;;;;;;;;;5.73;100.00;102833.66;4987092;28;19918;-71
2022/03/15 00:31:04;;;;;;;;;;;;;;;5.65;100.00;102832.69;4982319;28;19928;-71
2022/03/15 00:33:30;;;;;;;;;;;;;;;5.64;100.00;102837.06;4983930;28;20049;-72
2022/03/15 00:35:56;;;;;;;;;;;;;;;5.60;100.00;102831.75;4982814;28;19940;-72
2022/03/15 00:38:21;;;;;;;;;;;;;;;5.51;100.00;102834.31;4984230;28;20372;-71
2022/03/15 00:40:47;;;;;;;;;;;;;;;5.48;100.00;102834.28;4974353;28;20306;-73
2022/03/15 00:43:12;;;;;;;;;;;;;;;5.46;100.00;102830.75;4979421;28;19925;-72
2022/03/15 00:45:37;;;;;;;;;;;;;;;5.42;100.00;102837.75;4994257;28;20374;-72
2022/03/15 00:48:02;;;;;;;;;;;;;;;5.37;100.00;102830.69;4989796;28;19956;-71
2022/03/15 00:50:30;;;;;;;;;;;;;;;5.35;100.00;102822.75;4992531;28;20013;-72
2022/03/15 00:52:56;;;;;;;;;;;;;;;5.33;100.00;102831.50;4976843;28;19969;-72
2022/03/15 00:55:21;;;;;;;;;;;;;;;5.34;100.00;102825.38;4984597;28;19977;-71
2022/03/15 00:57:47;;;;;;;;;;;;;;;5.32;100.00;102817.47;4985250;28;19917;-71
2022/03/15 01:00:13;;;;;;;;;;;;;;;5.29;100.00;102814.78;4986366;28;19918;-72
2022/03/15 01:02:38;;;;;;;;;;;;;;;5.28;100.00;102815.63;4978776;28;19923;-72
2022/03/15 01:05:04;;;;;;;;;;;;;;;5.29;100.00;102819.16;4981614;28;19941;-72
2022/03/15 01:07:29;;;;;;;;;;;;;;;5.25;100.00;102802.44;4994189;28;19918;-72
2022/03/15 01:10:19;;;;;;;;;;;;;;;5.28;100.00;102814.78;4991303;28;19985;-72
2022/03/15 01:12:44;;;;;;;;;;;;;;;5.25;100.00;102806.81;4982963;28;19918;-72
2022/03/15 01:18:13;;;;;;;;;;;;;;;5.29;100.00;102801.63;4994135;28;20353;-72
2022/03/15 01:20:39;;;;;;;;;;;;;;;5.28;100.00;102802.47;4994981;28;19961;-72
2022/03/15 01:23:04;;;;;;;;;;;;;;;5.24;100.00;102802.44;4996803;28;19921;-72
2022/03/15 01:25:30;;;;;;;;;;;;;;;5.21;100.00;102795.38;4996902;28;20341;-72
2022/03/15 01:27:56;;;;;;;;;;;;;;;5.21;100.00;102787.50;4998388;28;19925;-72
2022/03/15 01:30:21;;;;;;;;;;;;;;;5.23;100.00;102791.00;4996606;28;19968;-72
2022/03/15 01:32:46;;;;;;;;;;;;;;;5.22;100.00;102776.06;4990082;28;20401;-72
2022/03/15 01:35:11;;;;;;;;;;;;;;;5.27;100.00;102779.63;4981851;28;19925;-71
2022/03/15 01:37:37;;;;;;;;;;;;;;;5.28;100.00;102781.41;4983979;28;19925;-71
2022/03/15 01:40:02;;;;;;;;;;;;;;;5.32;100.00;102764.78;4972100;28;19922;-71
2022/03/15 01:42:27;;;;;;;;;;;;;;;5.35;100.00;102770.06;4979731;28;19922;-72
2022/03/15 01:44:53;;;;;;;;;;;;;;;5.37;100.00;102762.16;4989213;28;19996;-71
2022/03/15 01:47:18;;;;;;;;;;;;;;;5.41;100.00;102763.94;4985867;28;19918;-71
2022/03/15 01:52:21;;;;;;;;;;;;;;;5.48;100.00;102774.59;5518431;23;19992;-71
2022/03/15 01:54:47;;;;;;;;;;;;;;;5.48;100.00;102782.50;4995486;28;19930;-72
2022/03/15 01:57:12;;;;;;;;;;;;;;;5.48;100.00;102773.69;5000114;28;19946;-74
2022/03/15 01:59:38;;;;;;;;;;;;;;;5.46;100.00;102768.41;5001234;28;19921;-73
2022/03/15 02:02:03;;;;;;;;;;;;;;;5.49;100.00;102768.44;5010035;28;20212;-73
2022/03/15 02:04:29;;;;;;;;;;;;;;;5.52;100.00;102762.28;5015874;28;19971;-73
2022/03/15 02:07:03;;;;;;;;;;;;;;;5.50;100.00;102754.38;5017328;28;19956;-73
2022/03/15 02:09:28;;;;;;;;;;;;;;;5.52;100.00;102762.28;5016998;28;19972;-73
2022/03/15 02:11:54;;;;;;;;;;;;;;;5.55;100.00;102757.94;5016917;28;19921;-73
2022/03/15 02:14:19;;;;;;;;;;;;;;;5.59;100.00;102753.56;5016891;28;19917;-73
2022/03/15 02:16:44;;;;;;;;;;;;;;;5.59;100.00;102751.84;5017834;28;20310;-73
2022/03/15 02:19:10;;;;;;;;;;;;;;;5.59;100.00;102736.03;5018997;28;20381;-73
2022/03/15 02:21:36;;;;;;;;;;;;;;;5.61;100.00;102743.94;5019098;28;19925;-73
2022/03/15 02:24:02;;;;;;;;;;;;;;;5.61;100.00;102736.88;5021129;28;19925;-74
2022/03/15 02:26:27;;;;;;;;;;;;;;;5.61;100.00;102725.50;5020113;28;20290;-73
2022/03/15 02:28:53;;;;;;;;;;;;;;;5.61;100.00;102728.13;5020325;28;20011;-73
2022/03/15 02:31:20;;;;;;;;;;;;;;;5.58;100.00;102721.06;5019568;28;19930;-73
2022/03/15 02:33:45;;;;;;;;;;;;;;;5.59;100.00;102717.56;5017480;28;19941;-73
2022/03/15 02:36:10;;;;;;;;;;;;;;;5.56;100.00;102712.25;5016573;28;19918;-73
2022/03/15 02:38:36;;;;;;;;;;;;;;;5.55;100.00;102712.25;5016608;28;19949;-72
2022/03/15 02:41:01;;;;;;;;;;;;;;;5.55;100.00;102706.97;5015272;28;19917;-73
2022/03/15 02:43:26;;;;;;;;;;;;;;;5.53;100.00;102706.97;5015316;28;19922;-73
2022/03/15 02:45:51;;;;;;;;;;;;;;;5.52;100.00;102699.03;5016614;28;19940;-73
2022/03/15 02:48:17;;;;;;;;;;;;;;;5.49;100.00;102694.66;5020257;28;19956;-73
2022/03/15 02:50:42;;;;;;;;;;;;;;;5.47;100.00;102683.19;5012913;28;19918;-72
2022/03/15 02:53:08;;;;;;;;;;;;;;;5.46;100.00;102689.34;5001151;28;19925;-74
2022/03/15 02:55:34;;;;;;;;;;;;;;;5.46;100.00;102697.25;5002028;28;19918;-73
2022/03/15 02:58:00;;;;;;;;;;;;;;;5.51;100.00;102697.28;5003253;28;20290;-74
2022/03/15 03:00:27;;;;;;;;;;;;;;;5.47;100.00;102693.75;5000386;28;19941;-73
2022/03/15 03:02:52;;;;;;;;;;;;;;;5.45;100.00;102690.19;4999117;28;20016;-73
2022/03/15 03:05:18;;;;;;;;;;;;;;;5.46;100.00;102694.63;4997023;28;19964;-73
2022/03/15 03:07:45;;;;;;;;;;;;;;;5.46;100.00;102697.25;4996439;28;19922;-73
2022/03/15 03:10:10;;;;;;;;;;;;;;;5.48;100.00;102697.28;4996822;28;19922;-73
2022/03/15 03:12:37;;;;;;;;;;;;;;;5.46;100.00;102692.00;4995223;28;20280;-73
2022/03/15 03:15:03;;;;;;;;;;;;;;;5.54;100.00;102687.66;4996565;28;20016;-73
2022/03/15 03:17:28;;;;;;;;;;;;;;;5.53;100.00;102685.88;4994971;28;20008;-74
2022/03/15 03:20:27;;;;;;;;;;;;;;;5.59;100.00;102691.22;4981928;28;19922;-73
2022/03/15 03:22:54;;;;;;;;;;;;;;;5.64;100.00;102691.25;4985571;28;20057;-74
2022/03/15 03:25:20;;;;;;;;;;;;;;;5.72;100.00;102687.75;4999877;28;19918;-73
2022/03/15 03:27:46;;;;;;;;;;;;;;;5.74;100.00;102686.03;4999318;28;19945;-74
2022/03/15 03:30:13;;;;;;;;;;;;;;;5.73;100.00;102681.66;5002444;28;20012;-74
2022/03/15 03:32:38;;;;;;;;;;;;;;;5.75;100.00;102677.25;5001300;28;19928;-73
2022/03/15 03:35:04;;;;;;;;;;;;;;;5.74;100.00;102683.41;5000241;28;19917;-74
2022/03/15 03:37:30;;;;;;;;;;;;;;;5.73;100.00;102683.38;5000262;28;19945;-73
2022/03/15 03:39:55;;;;;;;;;;;;;;;5.75;100.00;102679.88;5000600;28;19922;-73
2022/03/15 03:42:20;;;;;;;;;;;;;;;5.80;100.00;102661.44;4998609;28;19918;-73
2022/03/15 03:44:46;;;;;;;;;;;;;;;5.79;100.00;102657.94;4998004;28;19921;-73
2022/03/15 03:47:11;;;;;;;;;;;;;;;5.81;100.00;102664.13;5001542;28;20032;-74
2022/03/15 03:49:37;;;;;;;;;;;;;;;5.85;100.00;102654.47;5000094;28;20064;-73
2022/03/15 03:52:03;;;;;;;;;;;;;;;5.84;100.00;102655.38;4999665;28;19944;-73
2022/03/15 03:54:29;;;;;;;;;;;;;;;5.82;100.00;102657.09;4999160;28;20383;-74
2022/03/15 03:56:54;;;;;;;;;;;;;;;5.79;100.00;102650.03;4995040;28;19973;-73
2022/03/15 03:59:19;;;;;;;;;;;;;;;5.81;100.00;102650.03;4994793;28;19996;-74
2022/03/15 04:01:45;;;;;;;;;;;;;;;5.79;100.00;102652.66;4995256;28;19984;-73
2022/03/15 04:04:10;;;;;;;;;;;;;;;5.79;100.00;102649.16;4994482;28;20330;-73
2022/03/15 04:06:36;;;;;;;;;;;;;;;5.75;100.00;102642.97;4994688;28;19917;-73
2022/03/15 04:09:03;;;;;;;;;;;;;;;5.73;100.00;102642.09;4995487;28;19921;-74
2022/03/15 04:11:31;;;;;;;;;;;;;;;5.70;100.00;102643.81;4996671;28;19922;-73
2022/03/15 04:13:59;;;;;;;;;;;;;;;5.69;100.00;102647.31;4995636;28;19925;-73
2022/03/15 04:16:24;;;;;;;;;;;;;;;5.69;100.00;102663.13;4996484;28;20359;-73
2022/03/15 04:18:49;;;;;;;;;;;;;;;5.67;100.00;102646.44;4995562;28;20009;-73
2022/03/15 04:21:14;;;;;;;;;;;;;;;5.67;100.00;102647.31;4993662;28;19965;-74
2022/03/15 04:23:40;;;;;;;;;;;;;;;5.67;100.00;102646.44;4993856;28;19967;-73
2022/03/15 04:26:05;;;;;;;;;;;;;;;5.64;100.00;102644.66;4993807;28;19925;-73
2022/03/15 04:28:30;;;;;;;;;;;;;;;5.62;100.00;102635.88;4993723;28;19924;-73
2022/03/15 04:30:55;;;;;;;;;;;;;;;5.62;100.00;102638.53;4994857;28;20397;-73
2022/03/15 04:33:21;;;;;;;;;;;;;;;5.60;100.00;102645.53;4995352;28;19918;-73
2022/03/15 04:35:46;;;;;;;;;;;;;;;5.59;100.00;102632.34;4993584;28;19922;-73
2022/03/15 04:38:12;;;;;;;;;;;;;;;5.58;100.00;102636.72;4993666;28;20016;-73
2022/03/15 04:40:37;;;;;;;;;;;;;;;5.58;100.00;102647.25;4993538;28;19969;-74
2022/03/15 04:43:03;;;;;;;;;;;;;;;5.57;100.00;102639.34;4994675;28;20375;-73
2022/03/15 04:45:28;;;;;;;;;;;;;;;5.56;100.00;102630.53;4993704;28;19928;-73
2022/03/15 04:47:53;;;;;;;;;;;;;;;5.55;100.00;102626.16;4994719;28;20378;-73
2022/03/15 04:50:18;;;;;;;;;;;;;;;5.53;100.00;102627.91;4994659;28;19918;-73
2022/03/15 04:52:44;;;;;;;;;;;;;;;5.54;100.00;102627.03;4993073;28;20333;-74
2022/03/15 04:55:09;;;;;;;;;;;;;;;5.53;100.00;102620.00;4993182;28;19922;-73
2022/03/15 04:57:34;;;;;;;;;;;;;;;5.52;100.00;102618.25;4993245;28;20053;-73
2022/03/15 05:00:00;;;;;;;;;;;;;;;5.52;100.00;102605.06;4994842;28;20390;-73
2022/03/15 05:02:26;;;;;;;;;;;;;;;5.53;100.00;102608.59;4993296;28;19922;-73
2022/03/15 05:04:52;;;;;;;;;;;;;;;5.54;100.00;102608.59;4994698;28;20020;-73
2022/03/15 05:07:17;;;;;;;;;;;;;;;5.52;100.00;102594.53;4994623;28;19949;-73
2022/03/15 05:12:26;;;;;;;;;;;;;;;5.51;100.00;102591.88;4994900;28;19965;-73
2022/03/15 05:14:51;;;;;;;;;;;;;;;5.50;100.00;102575.19;4994665;28;19922;-73
2022/03/15 05:17:17;;;;;;;;;;;;;;;5.50;100.00;102574.31;4994572;28;19918;-73
2022/03/15 05:19:43;;;;;;;;;;;;;;;5.48;100.00;102571.69;4993378;28;19993;-73
2022/03/15 05:22:08;;;;;;;;;;;;;;;5.49;100.00;102572.53;4994585;28;20386;-74
2022/03/15 05:24:34;;;;;;;;;;;;;;;5.49;100.00;102572.53;4994406;28;20367;-73
2022/03/15 05:26:59;;;;;;;;;;;;;;;5.47;100.00;102575.16;4992903;28;19941;-73
2022/03/15 05:29:24;;;;;;;;;;;;;;;5.46;100.00;102570.78;4993094;28;19922;-73
2022/03/15 05:31:50;;;;;;;;;;;;;;;5.47;100.00;102577.78;4994489;28;19918;-73
2022/03/15 05:34:16;;;;;;;;;;;;;;;5.49;100.00;102580.44;4994154;28;20367;-73
2022/03/15 05:36:41;;;;;;;;;;;;;;;5.48;100.00;102581.31;4993017;28;19925;-73
2022/03/15 05:39:06;;;;;;;;;;;;;;;5.47;100.00;102572.53;4992898;28;19918;-73
2022/03/15 05:41:31;;;;;;;;;;;;;;;5.47;100.00;102574.28;4994182;28;20035;-75
2022/03/15 05:43:56;;;;;;;;;;;;;;;5.50;100.00;102569.03;4987993;28;20384;-74
2022/03/15 05:46:22;;;;;;;;;;;;;;;5.52;100.00;102572.53;4965792;28;19941;-73
2022/03/15 05:48:47;;;;;;;;;;;;;;;5.52;100.00;102569.91;4973669;28;19949;-73
2022/03/15 05:51:12;;;;;;;;;;;;;;;5.50;100.00;102569.03;4968843;28;19925;-74
2022/03/15 05:53:37;;;;;;;;;;;;;;;5.48;100.00;102568.16;4975799;28;19953;-74
2022/03/15 05:56:03;;;;;;;;;;;;;;;5.50;100.00;102569.03;4974932;28;20009;-74
2022/03/15 05:58:28;;;;;;;;;;;;;;;5.53;100.00;102558.53;4974338;28;19973;-73
2022/03/15 06:00:55;;;;;;;;;;;;;;;5.49;100.00;102559.34;4974435;28;19925;-73
2022/03/15 06:03:21;;;;;;;;;;;;;;;5.48;100.00;102562.88;4973501;28;19918;-74
2022/03/15 06:05:46;;;;;;;;;;;;;;;5.47;100.00;102566.38;4975853;28;19986;-74
2022/03/15 06:08:12;;;;;;;;;;;;;;;5.45;100.00;102571.63;4980709;28;19949;-76
2022/03/15 06:10:37;;;;;;;;;;;;;;;5.48;100.00;102576.06;4980320;28;19926;-73
2022/03/15 06:13:03;;;;;;;;;;;;;;;5.47;100.00;102575.16;4977378;28;20302;-73
2022/03/15 06:15:28;;;;;;;;;;;;;;;5.49;100.00;102576.06;4977805;28;19969;-73
2022/03/15 06:17:56;;;;;;;;;;;;;;;5.52;100.00;102580.44;4978806;28;20383;-73
2022/03/15 06:20:22;;;;;;;;;;;;;;;5.52;100.00;102589.25;4978179;28;20261;-74
2022/03/15 06:22:47;;;;;;;;;;;;;;;5.52;100.00;102581.34;4977356;28;19925;-73
2022/03/15 06:25:13;;;;;;;;;;;;;;;5.57;100.00;102584.00;4977579;28;19918;-73
2022/03/15 06:27:38;;;;;;;;;;;;;;;5.57;100.00;102587.53;4976314;28;19928;-73
2022/03/15 06:30:04;;;;;;;;;;;;;;;5.59;100.00;102580.53;4977713;28;19925;-73
2022/03/15 06:32:29;;;;;;;;;;;;;;;5.62;100.00;102584.91;4976865;28;20276;-73
2022/03/15 06:34:55;;;;;;;;;;;;;;;5.63;100.00;102582.28;4977069;28;19964;-74
2022/03/15 06:37:20;;;;;;;;;;;;;;;5.66;100.00;102584.94;4976932;28;20009;-74
2022/03/15 06:39:45;;;;;;;;;;;;;;;5.68;100.00;102580.56;4977411;28;20014;-76
2022/03/15 06:42:11;;;;;;;;;;;;;;;5.70;100.00;102586.72;4976392;28;20020;-75
2022/03/15 06:44:43;;;;;;;;;;;;;;;5.72;100.00;102586.72;4975429;28;19922;-74
2022/03/15 06:47:08;;;;;;;;;;;;;;;5.75;100.00;102584.97;4975133;28;19921;-74
2022/03/15 06:49:34;;;;;;;;;;;;;;;5.81;100.00;102585.03;4975667;28;20375;-72
2022/03/15 06:51:59;;;;;;;;;;;;;;;5.83;100.00;102579.78;4976386;28;20379;-72
2022/03/15 06:54:25;;;;;;;;;;;;;;;5.85;100.00;102584.19;4975304;28;19918;-71
2022/03/15 06:56:50;;;;;;;;;;;;;;;5.90;100.00;102582.44;4976696;28;20057;-71
2022/03/15 06:59:15;;;;;;;;;;;;;;;5.93;100.00;102582.47;4975479;28;19918;-71
2022/03/15 07:01:41;;;;;;;;;;;;;;;5.98;100.00;102586.00;4975528;28;20318;-72
2022/03/15 07:04:06;;;;;;;;;;;;;;;6.06;100.00;102572.84;4975387;28;20414;-72
2022/03/15 07:06:31;;;;;;;;;;;;;;;6.11;100.00;102581.66;4975491;28;19924;-71
2022/03/15 07:08:56;;;;;;;;;;;;;;;6.12;100.00;102576.38;4976253;28;19924;-75
2022/03/15 07:11:22;;;;;;;;;;;;;;;6.21;100.00;102579.03;4975915;28;19918;-72
2022/03/15 07:13:47;;;;;;;;;;;;;;;6.22;100.00;102570.22;4977888;28;19922;-73
2022/03/15 07:16:12;;;;;;;;;;;;;;;6.24;100.00;102565.84;4975902;28;19918;-77
2022/03/15 07:18:37;;;;;;;;;;;;;;;6.27;100.00;102566.75;4976304;28;19945;-75
2022/03/15 07:21:03;;;;;;;;;;;;;;;6.31;100.00;102569.38;4976478;28;19919;-75
2022/03/15 07:23:28;;;;;;;;;;;;;;;6.36;100.00;102558.81;4974901;28;19925;-73
2022/03/15 07:25:53;;;;;;;;;;;;;;;6.45;100.00;102566.75;4974830;28;20272;-73
2022/03/15 07:28:19;;;;;;;;;;;;;;;6.49;100.00;102565.91;4976054;28;19918;-73
2022/03/15 07:30:45;;;;;;;;;;;;;;;6.52;100.00;102555.34;4976599;28;19918;-73
2022/03/15 07:33:10;;;;;;;;;;;;;;;6.56;100.00;102557.09;4974205;28;19922;-73
2022/03/15 07:35:36;;;;;;;;;;;;;;;6.68;100.00;102554.47;4971794;28;19930;-73
2022/03/15 07:38:01;;;;;;;;;;;;;;;6.75;100.00;102550.94;4975509;28;20347;-73
2022/03/15 07:40:28;;;;;;;;;;;;;;;6.77;100.00;102551.84;4975447;28;19969;-73
2022/03/15 07:42:53;;;;;;;;;;;;;;;6.83;100.00;102543.91;4963329;28;19922;-72
2022/03/15 07:45:19;;;;;;;;;;;;;;;6.88;100.00;102547.44;4974308;28;19924;-72
2022/03/15 07:47:44;;;;;;;;;;;;;;;6.88;100.00;102550.06;4974334;28;19924;-72
2022/03/15 07:50:10;;;;;;;;;;;;;;;6.95;100.00;102549.19;4974141;28;20013;-73
2022/03/15 07:52:35;;;;;;;;;;;;;;;7.04;100.00;102554.47;4975325;28;20343;-71
2022/03/15 07:55:01;;;;;;;;;;;;;;;7.06;100.00;102547.44;4967109;28;19926;-73
2022/03/15 07:57:26;;;;;;;;;;;;;;;7.12;100.00;102542.13;4959170;28;19929;-72
2022/03/15 07:59:51;;;;;;;;;;;;;;;7.17;100.00;102535.09;4973682;28;19926;-72
2022/03/15 08:02:17;;;;;;;;;;;;;;;7.17;100.00;102533.28;4974738;28;19969;-71
2022/03/15 08:04:42;;;;;;;;;;;;;;;7.23;100.00;102535.91;4975008;28;19952;-71
2022/03/15 08:07:08;;;;;;;;;;;;;;;7.26;100.00;102529.78;4974895;28;20357;-71
2022/03/15 08:09:35;;;;;;;;;;;;;;;7.30;100.00;102529.75;4975253;28;19924;-71
2022/03/15 08:12:00;;;;;;;;;;;;;;;7.45;100.00;102531.47;4975147;28;19968;-71
2022/03/15 08:14:25;;;;;;;;;;;;;;;7.50;100.00;102530.56;4975053;28;19922;-72
2022/03/15 08:16:50;;;;;;;;;;;;;;;7.64;100.00;102533.19;4975140;28;19922;-71
2022/03/15 08:19:16;;;;;;;;;;;;;;;7.71;100.00;102532.25;4973650;28;19922;-71
2022/03/15 08:21:41;;;;;;;;;;;;;;;7.82;100.00;102527.78;4973731;28;19928;-71
2022/03/15 08:24:06;;;;;;;;;;;;;;;7.83;100.00;102534.88;4974542;28;19922;-72
2022/03/15 08:26:31;;;;;;;;;;;;;;;8.05;100.00;102531.22;4974434;28;19930;-71
2022/03/15 08:28:57;;;;;;;;;;;;;;;8.07;100.00;102536.50;4975093;28;19925;-71
2022/03/15 08:31:22;;;;;;;;;;;;;;;8.18;100.00;102535.53;4974584;28;19925;-72
2022/03/15 08:33:47;;;;;;;;;;;;;;;8.36;100.00;102529.28;4975160;28;20394;-71
2022/03/15 08:36:13;;;;;;;;;;;;;;;8.39;100.00;102524.84;4974617;28;19926;-72
2022/03/15 08:38:38;;;;;;;;;;;;;;;8.46;100.00;102523.91;4974689;28;20418;-72
2022/03/15 08:41:05;;;;;;;;;;;;;;;8.64;100.00;102518.47;4974979;28;19961;-71
2022/03/15 08:43:30;;;;;;;;;;;;;;;8.52;100.00;102533.59;4973810;28;20413;-71
2022/03/15 08:45:56;;;;;;;;;;;;;;;8.56;100.00;102525.59;4973832;28;20008;-71
2022/03/15 08:48:21;;;;;;;;;;;;;;;8.71;100.00;102520.19;4973488;28;19918;-72
2022/03/15 08:50:46;;;;;;;;;;;;;;;8.79;100.00;102528.06;4974839;28;20021;-71
2022/03/15 08:53:13;;;;;;;;;;;;;;;8.97;100.00;102523.47;4974318;28;19922;-71
2022/03/15 08:55:38;;;;;;;;;;;;;;;8.92;100.00;102525.28;4973372;28;19921;-71
2022/03/15 08:58:03;;;;;;;;;;;;;;;8.74;100.00;102522.81;4973389;28;19929;-72
2022/03/15 09:00:29;;;;;;;;;;;;;;;8.79;100.00;102533.38;4975162;28;19953;-73
2022/03/15 09:02:54;;;;;;;;;;;;;;;8.57;100.00;102522.06;4977010;28;20276;-71
2022/03/15 09:05:19;;;;;;;;;;;;;;;8.59;100.00;102524.69;4974511;28;19922;-71
2022/03/15 09:07:51;;;;;;;;;;;;;;;8.61;100.00;102523.81;4964585;28;19969;-71
2022/03/15 09:10:17;;;;;;;;;;;;;;;8.84;100.00;102523.63;4963522;28;19962;-72
2022/03/15 09:12:42;;;;;;;;;;;;;;;8.74;100.00;102527.22;4959052;28;19929;-71
2022/03/15 09:15:08;;;;;;;;;;;;;;;8.86;100.00;102528.00;4973744;28;19922;-71
2022/03/15 09:17:33;;;;;;;;;;;;;;;8.86;100.00;102525.34;4971103;28;20042;-71
2022/03/15 09:19:58;;;;;;;;;;;;;;;8.78;100.00;102529.84;4972160;28;19933;-72
2022/03/15 09:22:23;;;;;;;;;;;;;;;9.02;100.00;102526.09;4971408;28;20384;-71
2022/03/15 09:24:48;;;;;;;;;;;;;;;9.10;100.00;102517.19;4973922;28;19918;-73
2022/03/15 09:27:14;;;;;;;;;;;;;;;9.18;100.00;102517.09;4967770;28;19923;-72
2022/03/15 09:29:39;;;;;;;;;;;;;;;9.00;100.00;102515.50;4957880;28;19918;-71
2022/03/15 09:32:05;;;;;;;;;;;;;;;9.12;100.00;102512.72;4968777;28;19941;-73
2022/03/15 09:34:30;;;;;;;;;;;;;;;9.27;100.00;102512.56;4974701;28;20020;-73
2022/03/15 09:36:57;;;;;;;;;;;;;;;9.52;100.00;102507.00;4957274;28;19940;-74
2022/03/15 09:39:23;;;;;;;;;;;;;;;9.59;100.00;102498.06;4978750;28;19918;-74
2022/03/15 09:41:50;;;;;;;;;;;;;;;9.87;100.00;102504.75;4975846;28;19980;-73
2022/03/15 09:44:16;;;;;;;;;;;;;;;10.00;100.00;102490.44;4977386;28;20437;-73
2022/03/15 09:46:43;;;;;;;;;;;;;;;9.92;100.00;102492.31;4978955;28;20299;-72
2022/03/15 09:49:09;;;;;;;;;;;;;;;9.98;100.00;102482.50;4977725;28;19930;-74
2022/03/15 09:51:35;;;;;;;;;;;;;;;10.07;100.00;102482.38;4970584;28;19929;-72
2022/03/15 09:54:02;;;;;;;;;;;;;;;10.09;100.00;102485.00;4970530;28;19925;-72
2022/03/15 09:56:28;;;;;;;;;;;;;;;10.16;100.00;102479.63;4968143;28;19918;-72
2022/03/15 09:58:53;;;;;;;;;;;;;;;9.74;100.00;102484.63;4972030;28;19965;-72
2022/03/15 10:01:18;;;;;;;;;;;;;;;9.81;100.00;102478.31;4976850;28;19965;-71
2022/03/15 10:03:44;;;;;;;;;;;;;;;9.96;100.00;102468.34;4977992;28;19925;-71
2022/03/15 10:06:09;;;;;;;;;;;;;;;10.11;100.00;102473.50;4978290;28;20454;-71
2022/03/15 10:08:37;;;;;;;;;;;;;;;10.06;100.00;102464.69;4976742;28;20387;-71
2022/03/15 10:11:02;;;;;;;;;;;;;;;10.29;100.00;102451.94;4970469;28;19946;-71
2022/03/15 10:13:28;;;;;;;;;;;;;;;10.03;100.00;102448.78;4970872;28;20425;-71
2022/03/15 10:15:54;;;;;;;;;;;;;;;10.05;100.00;102447.00;4968377;28;19950;-71
2022/03/15 10:18:20;;;;;;;;;;;;;;;9.89;100.00;102448.13;4973645;28;20001;-72
2022/03/15 10:20:46;;;;;;;;;;;;;;;9.95;100.00;102445.38;4976226;28;20021;-71
2022/03/15 10:23:11;;;;;;;;;;;;;;;10.04;100.00;102447.00;4977580;28;19972;-71
2022/03/15 10:25:37;;;;;;;;;;;;;;;9.97;100.00;102443.59;4972989;28;19922;-71
2022/03/15 10:28:04;;;;;;;;;;;;;;;10.10;100.00;102434.53;4958164;28;20287;-71
2022/03/15 10:30:30;;;;;;;;;;;;;;;9.76;100.00;102432.38;4957077;28;19918;-71
2022/03/15 10:32:56;;;;;;;;;;;;;;;9.85;100.00;102437.59;4958399;28;19925;-71
2022/03/15 10:35:22;;;;;;;;;;;;;;;9.89;100.00;102428.66;4941195;29;20376;-71
2022/03/15 10:37:49;;;;;;;;;;;;;;;10.08;100.00;102422.22;4961653;28;19922;-71
2022/03/15 10:40:15;;;;;;;;;;;;;;;10.18;100.00;102415.88;4977783;28;19918;-73
2022/03/15 10:42:41;;;;;;;;;;;;;;;10.20;100.00;102414.94;4960638;28;19971;-71
2022/03/15 10:45:34;;;;;;;;;;;;;;;10.41;100.00;102406.63;4976788;28;20375;-71
2022/03/15 10:48:00;;;;;;;;;;;;;;;10.84;100.00;102407.56;4977009;28;19942;-71
2022/03/15 10:50:25;;;;;;;;;;;;;;;11.27;100.00;102404.94;4976921;28;19922;-70
2022/03/15 10:52:51;;;;;;;;;;;;;;;11.66;100.00;102395.28;4975741;28;19922;-71
2022/03/15 10:55:19;;;;;;;;;;;;;;;11.89;100.00;102401.81;4978311;28;19961;-71
2022/03/15 10:57:50;;;;;;;;;;;;;;;12.10;100.00;102398.63;4977651;28;19985;-71
2022/03/15 11:00:16;;;;;;;;;;;;;;;13.04;100.00;102398.84;4977385;28;19969;-71
2022/03/15 11:02:45;;;;;;;;;;;;;;;14.76;100.00;102372.84;4975774;28;20490;-71
2022/03/15 11:05:10;;;;;;;;;;;;;;;16.05;100.00;102378.53;4975783;28;19918;-70
2022/03/15 11:07:39;;;;;;;;;;;;;;;17.10;100.00;102389.16;4975787;28;19929;-70
2022/03/15 11:10:12;;;;;;;;;;;;;;;17.50;100.00;102399.00;4976825;28;20292;-72
2022/03/15 11:12:38;;;;;;;;;;;;;;;18.40;100.00;102402.63;4976794;28;19922;-72
2022/03/15 11:15:04;;;;;;;;;;;;;;;19.59;100.00;102401.63;4975770;28;19918;-72
2022/03/15 11:17:34;;;;;;;;;;;;;;;20.95;100.00;102413.41;4975762;28;19918;-72
2022/03/15 11:20:00;;;;;;;;;;;;;;;20.52;100.00;102407.00;4964453;28;20014;-70
2022/03/15 11:22:30;;;;;;;;;;;;;;;21.38;100.00;102408.94;4956472;28;20284;-72
2022/03/15 11:25:04;;;;;;;;;;;;;;;22.26;100.00;102404.97;4960152;28;21608;-70
2022/03/15 11:27:31;;;;;;;;;;;;;;;21.82;100.00;102404.31;4976227;28;20005;-71
2022/03/15 11:30:01;;;;;;;;;;;;;;;22.51;100.00;102410.47;4975697;28;19924;-71
2022/03/15 11:32:26;;;;;;;;;;;;;;;21.66;100.00;102412.53;4976591;28;20360;-72
2022/03/15 11:34:51;;;;;;;;;;;;;;;22.59;100.00;102409.03;4976851;28;19919;-71
2022/03/15 11:37:17;;;;;;;;;;;;;;;24.37;100.00;102404.22;4976645;28;19923;-72
2022/03/15 11:39:42;;;;;;;;;;;;;;;24.27;100.00;102405.88;4975840;28;19925;-71
2022/03/15 11:42:09;;;;;;;;;;;;;;;24.55;100.00;102402.81;4975702;28;19929;-71
2022/03/15 11:44:46;;;;;;;;;;;;;;;25.11;100.00;102412.03;4976913;28;20016;-71
2022/03/15 11:47:18;;;;;;;;;;;;;;;25.41;100.00;102410.53;4975003;28;19941;-71
2022/03/15 11:49:47;;;;;;;;;;;;;;;25.43;100.00;102405.78;4976619;28;19918;-71
2022/03/15 11:52:31;;;;;;;;;;;;;;;26.00;100.00;102400.22;4976168;28;20374;-71
2022/03/15 11:55:05;;;;;;;;;;;;;;;25.66;100.00;102403.94;4976126;28;19918;-71
2022/03/15 11:57:34;;;;;;;;;;;;;;;23.07;100.00;102401.19;4976506;28;19945;-72
2022/03/15 12:00:00;;;;;;;;;;;;;;;24.17;100.00;102387.69;4975099;28;20299;-73
2022/03/15 12:02:47;;;;;;;;;;;;;;;25.06;100.00;102396.09;4976241;28;19918;-73
2022/03/15 12:05:16;;;;;;;;;;;;;;;23.65;100.00;102386.06;4975050;28;19918;-73
2022/03/15 12:07:45;;;;;;;;;;;;;;;25.82;100.00;102398.13;4973896;28;19922;-73
2022/03/15 12:10:11;;;;;;;;;;;;;;;23.20;100.00;102394.78;4972790;28;20405;-71
2022/03/15 12:12:38;;;;;;;;;;;;;;;22.92;100.00;102386.88;4968841;28;19926;-71
2022/03/15 12:15:12;;;;;;;;;;;;;;;20.58;100.00;102379.66;4956550;28;20369;-71
2022/03/15 12:17:41;;;;;;;;;;;;;;;21.23;100.00;102372.09;4955397;28;19942;-73
2022/03/15 12:20:16;;;;;;;;;;;;;;;21.18;100.00;102375.94;4958254;28;19985;-70
2022/03/15 12:22:43;;;;;;;;;;;;;;;21.01;100.00;102376.13;4955261;28;19925;-71
2022/03/15 12:25:13;;;;;;;;;;;;;;;22.63;100.00;102360.91;4956648;28;20299;-71
2022/03/15 12:27:44;;;;;;;;;;;;;;;24.76;100.00;102368.59;4958101;28;19929;-73
2022/03/15 12:30:14;;;;;;;;;;;;;;;24.71;100.00;102375.38;4976153;28;19966;-71
2022/03/15 12:32:49;;;;;;;;;;;;;;;22.99;100.00;102365.63;4976461;28;19918;-71
2022/03/15 12:35:14;;;;;;;;;;;;;;;21.67;100.00;102362.00;4975703;28;19918;-72
2022/03/15 12:37:39;;;;;;;;;;;;;;;21.41;100.00;102360.09;4975503;28;19918;-71
2022/03/15 12:40:07;;;;;;;;;;;;;;;23.84;100.00;102353.91;4974726;28;21283;-71